createdAt,value
2018-07-20T00:00:30.387Z,20.50
2018-07-20T00:01:30.387Z,20.46
2018-07-20T00:02:30.379Z,20.35
2018-07-20T00:03:30.380Z,20.42
2018-07-20T00:04:30.385Z,20.41
2018-07-20T00:05:30.436Z,20.35
2018-07-20T00:06:30.379Z,20.31
2018-07-20T00:07:30.380Z,20.25
2018-07-20T00:08:30.380Z,20.23
2018-07-20T00:09:30.377Z,20.16
2018-07-20T00:10:30.381Z,20.17
2018-07-20T00:11:30.381Z,20.05
2018-07-20T00:12:30.380Z,20.08
2018-07-20T00:13:30.381Z,20.07
2018-07-20T00:14:30.375Z,20.02
2018-07-20T00:15:30.375Z,19.92
2018-07-20T00:16:30.375Z,19.95
2018-07-20T00:17:30.374Z,20.02
2018-07-20T00:18:30.378Z,19.90
2018-07-20T00:19:30.377Z,19.80
2018-07-20T00:20:30.373Z,19.78
2018-07-20T00:21:30.371Z,19.83
2018-07-20T00:22:30.376Z,19.79
2018-07-20T00:23:30.378Z,19.83
2018-07-20T00:24:30.375Z,19.78
2018-07-20T00:25:30.372Z,19.79
2018-07-20T00:26:30.369Z,19.79
2018-07-20T00:27:30.369Z,19.79
2018-07-20T00:28:30.367Z,19.82
2018-07-20T00:29:30.367Z,19.70
2018-07-20T00:30:30.379Z,19.70
2018-07-20T00:31:30.370Z,19.79
2018-07-20T00:32:30.374Z,19.70
2018-07-20T00:33:30.369Z,19.68
2018-07-20T00:34:30.363Z,19.70
2018-07-20T00:35:30.364Z,19.70
2018-07-20T00:36:30.367Z,19.68
2018-07-20T00:37:30.369Z,19.61
2018-07-20T00:38:30.361Z,19.57
2018-07-20T00:39:30.360Z,19.60
2018-07-20T00:40:30.360Z,19.62
2018-07-20T00:41:30.357Z,19.52
2018-07-20T00:42:30.363Z,19.57
2018-07-20T00:43:30.360Z,19.58
2018-07-20T00:44:30.360Z,19.52
2018-07-20T00:45:30.359Z,19.49
2018-07-20T00:46:30.353Z,19.49
2018-07-20T00:47:30.353Z,19.45
2018-07-20T00:48:30.352Z,19.49
2018-07-20T00:49:30.350Z,19.46
2018-07-20T00:50:30.356Z,19.43
2018-07-20T00:51:30.356Z,19.39
2018-07-20T00:52:30.348Z,19.35
2018-07-20T00:53:30.346Z,19.42
2018-07-20T00:54:30.352Z,19.45
2018-07-20T00:55:30.352Z,19.24
2018-07-20T00:56:30.351Z,19.31
2018-07-20T00:57:30.347Z,19.23
2018-07-20T00:58:30.343Z,19.27
2018-07-20T00:59:30.343Z,19.24
2018-07-20T01:00:30.346Z,19.24
2018-07-20T01:01:30.340Z,19.21
2018-07-20T01:02:30.343Z,19.16
2018-07-20T01:03:30.343Z,19.17
2018-07-20T01:04:30.344Z,19.13
2018-07-20T01:05:30.392Z,19.02
2018-07-20T01:06:30.335Z,19.07
2018-07-20T01:07:30.334Z,19.12
2018-07-20T01:08:30.337Z,19.07
2018-07-20T01:09:30.335Z,19.01
2018-07-20T01:10:30.331Z,19.01
2018-07-20T01:11:30.330Z,19.06
2018-07-20T01:12:30.330Z,18.99
2018-07-20T01:13:30.326Z,18.96
2018-07-20T01:14:30.334Z,18.97
2018-07-20T01:15:30.330Z,18.90
2018-07-20T01:16:30.330Z,18.84
2018-07-20T01:17:30.329Z,18.82
2018-07-20T01:18:30.321Z,18.79
2018-07-20T01:19:30.321Z,18.79
2018-07-20T01:20:30.320Z,18.78
2018-07-20T01:21:30.320Z,18.83
2018-07-20T01:22:30.323Z,18.82
2018-07-20T01:23:30.324Z,18.76
2018-07-20T01:24:30.319Z,18.66
2018-07-20T01:25:30.312Z,18.82
2018-07-20T01:26:30.315Z,18.79
2018-07-20T01:27:30.314Z,18.76
2018-07-20T01:28:30.313Z,18.78
2018-07-20T01:29:30.312Z,18.68
2018-07-20T01:30:30.307Z,18.72
2018-07-20T01:31:30.304Z,18.66
2018-07-20T01:32:30.307Z,18.59
2018-07-20T01:33:30.302Z,18.60
2018-07-20T01:34:30.309Z,18.59
2018-07-20T01:35:30.305Z,18.56
2018-07-20T01:36:30.302Z,18.49
2018-07-20T01:37:30.301Z,18.49
2018-07-20T01:38:30.295Z,18.47
2018-07-20T01:39:30.296Z,18.42
2018-07-20T01:40:30.296Z,18.50
2018-07-20T01:41:30.294Z,18.46
2018-07-20T01:42:30.290Z,18.47
2018-07-20T01:43:30.291Z,18.46
2018-07-20T01:44:30.287Z,18.49
2018-07-20T01:45:30.285Z,18.39
2018-07-20T01:46:30.289Z,18.42
2018-07-20T01:47:30.288Z,18.35
2018-07-20T01:48:30.286Z,18.46
2018-07-20T01:49:30.285Z,18.44
2018-07-20T01:50:30.277Z,18.38
2018-07-20T01:51:30.276Z,18.46
2018-07-20T01:52:30.275Z,18.38
2018-07-20T01:53:30.275Z,18.38
2018-07-20T01:54:30.275Z,18.35
2018-07-20T01:55:30.276Z,18.35
2018-07-20T01:56:30.270Z,18.34
2018-07-20T01:57:30.267Z,18.29
2018-07-20T01:58:30.272Z,18.32
2018-07-20T01:59:30.269Z,18.34
2018-07-20T02:00:30.269Z,18.39
2018-07-20T02:01:30.266Z,18.23
2018-07-20T02:02:30.260Z,18.25
2018-07-20T02:03:30.258Z,18.23
2018-07-20T02:04:30.256Z,18.17
2018-07-20T02:05:30.255Z,18.19
2018-07-20T02:06:30.258Z,18.13
2018-07-20T02:07:30.255Z,18.17
2018-07-20T02:08:30.255Z,18.11
2018-07-20T02:09:30.253Z,18.05
2018-07-20T02:10:30.248Z,18.05
2018-07-20T02:11:30.245Z,18.04
2018-07-20T02:12:30.251Z,18.01
2018-07-20T02:13:30.248Z,17.98
2018-07-20T02:14:30.240Z,17.96
2018-07-20T02:15:30.238Z,17.96
2018-07-20T02:16:30.236Z,17.91
2018-07-20T02:17:30.234Z,17.99
2018-07-20T02:18:30.237Z,18.01
2018-07-20T02:19:30.235Z,17.96
2018-07-20T02:20:30.236Z,17.86
2018-07-20T02:21:30.238Z,17.92
2018-07-20T02:22:30.226Z,17.87
2018-07-20T02:23:30.224Z,17.84
2018-07-20T02:24:30.222Z,17.86
2018-07-20T02:25:30.222Z,17.84
2018-07-20T02:26:30.225Z,17.83
2018-07-20T02:27:30.221Z,17.76
2018-07-20T02:28:30.215Z,17.79
2018-07-20T02:29:30.248Z,17.80
2018-07-20T02:30:30.216Z,17.74
2018-07-20T02:31:30.216Z,17.77
2018-07-20T02:32:30.213Z,17.73
2018-07-20T02:33:30.210Z,17.71
2018-07-20T02:34:30.204Z,17.73
2018-07-20T02:35:30.205Z,17.60
2018-07-20T02:36:30.206Z,17.63
2018-07-20T02:37:30.199Z,17.66
2018-07-20T02:38:30.200Z,17.62
2018-07-20T02:39:30.199Z,17.63
2018-07-20T02:40:30.198Z,17.60
2018-07-20T02:41:30.197Z,17.58
2018-07-20T02:42:30.191Z,17.62
2018-07-20T02:43:30.189Z,17.62
2018-07-20T02:44:30.191Z,17.66
2018-07-20T02:45:30.189Z,17.62
2018-07-20T02:46:30.181Z,17.68
2018-07-20T02:47:30.181Z,17.62
2018-07-20T02:48:30.178Z,17.65
2018-07-20T02:49:30.175Z,17.73
2018-07-20T02:50:30.178Z,17.60
2018-07-20T02:51:30.178Z,17.53
2018-07-20T02:52:30.175Z,17.62
2018-07-20T02:53:30.174Z,17.55
2018-07-20T02:54:30.167Z,17.58
2018-07-20T02:55:30.164Z,17.49
2018-07-20T02:56:30.162Z,17.46
2018-07-20T02:57:30.159Z,17.42
2018-07-20T02:58:30.167Z,17.39
2018-07-20T02:59:30.165Z,17.42
2018-07-20T03:00:30.154Z,17.42
2018-07-20T03:01:30.152Z,17.43
2018-07-20T03:02:30.155Z,17.40
2018-07-20T03:03:30.153Z,17.40
2018-07-20T03:04:30.156Z,17.36
2018-07-20T03:05:30.148Z,17.27
2018-07-20T03:06:30.141Z,17.30
2018-07-20T03:07:30.140Z,17.22
2018-07-20T03:08:30.138Z,17.28
2018-07-20T03:09:30.135Z,17.27
2018-07-20T03:10:30.139Z,17.20
2018-07-20T03:11:30.137Z,17.28
2018-07-20T03:12:30.134Z,17.25
2018-07-20T03:13:30.132Z,17.25
2018-07-20T03:14:30.125Z,17.24
2018-07-20T03:15:30.123Z,17.27
2018-07-20T03:16:30.132Z,17.27
2018-07-20T03:17:30.124Z,17.24
2018-07-20T03:18:30.121Z,17.24
2018-07-20T03:19:30.115Z,17.25
2018-07-20T03:20:30.112Z,17.20
2018-07-20T03:21:30.112Z,17.24
2018-07-20T03:22:30.115Z,17.15
2018-07-20T03:23:30.114Z,17.12
2018-07-20T03:24:30.110Z,17.09
2018-07-20T03:25:30.111Z,17.15
2018-07-20T03:26:30.101Z,17.09
2018-07-20T03:27:30.099Z,17.10
2018-07-20T03:28:30.096Z,17.10
2018-07-20T03:29:30.095Z,17.14
2018-07-20T03:30:30.098Z,17.06
2018-07-20T03:31:30.093Z,17.10
2018-07-20T03:32:30.091Z,17.12
2018-07-20T03:33:30.086Z,17.10
2018-07-20T03:34:30.093Z,17.03
2018-07-20T03:35:30.085Z,17.10
2018-07-20T03:36:30.085Z,17.12
2018-07-20T03:37:30.083Z,17.10
2018-07-20T03:38:30.077Z,17.15
2018-07-20T03:39:30.070Z,17.09
2018-07-20T03:40:30.069Z,17.10
2018-07-20T03:41:30.069Z,17.10
2018-07-20T03:42:30.071Z,17.15
2018-07-20T03:43:30.067Z,17.14
2018-07-20T03:44:30.064Z,17.14
2018-07-20T03:45:30.063Z,17.10
2018-07-20T03:46:30.058Z,17.15
2018-07-20T03:47:30.053Z,17.10
2018-07-20T03:48:30.094Z,17.06
2018-07-20T03:49:30.054Z,17.06
2018-07-20T03:50:30.045Z,17.03
2018-07-20T03:51:30.045Z,16.96
2018-07-20T03:52:30.044Z,17.05
2018-07-20T03:53:30.041Z,16.96
2018-07-20T03:54:30.042Z,17.00
2018-07-20T03:55:30.042Z,17.00
2018-07-20T03:56:30.039Z,17.03
2018-07-20T03:57:30.037Z,17.06
2018-07-20T03:58:30.030Z,17.09
2018-07-20T03:59:30.026Z,17.00
2018-07-20T04:00:30.022Z,17.12
2018-07-20T04:01:30.023Z,17.06
2018-07-20T04:02:30.064Z,17.14
2018-07-20T04:03:30.021Z,17.10
2018-07-20T04:04:30.013Z,17.10
2018-07-20T04:05:30.010Z,17.18
2018-07-20T04:06:30.013Z,17.18
2018-07-20T04:07:30.011Z,17.25
2018-07-20T04:08:30.009Z,17.21
2018-07-20T04:09:30.006Z,17.27
2018-07-20T04:10:29.999Z,17.15
2018-07-20T04:11:29.997Z,17.24
2018-07-20T04:12:29.995Z,17.28
2018-07-20T04:13:29.993Z,17.25
2018-07-20T04:14:29.995Z,17.30
2018-07-20T04:15:29.992Z,17.22
2018-07-20T04:16:29.991Z,17.30
2018-07-20T04:17:29.989Z,17.32
2018-07-20T04:18:29.984Z,17.30
2018-07-20T04:19:29.979Z,17.40
2018-07-20T04:20:29.983Z,17.51
2018-07-20T04:21:29.980Z,17.45
2018-07-20T04:22:29.973Z,17.49
2018-07-20T04:23:29.973Z,17.62
2018-07-20T04:24:29.969Z,17.46
2018-07-20T04:25:29.966Z,17.62
2018-07-20T04:26:29.968Z,17.65
2018-07-20T04:27:29.967Z,17.62
2018-07-20T04:28:29.966Z,17.71
2018-07-20T04:29:29.968Z,17.74
2018-07-20T04:30:29.957Z,17.79
2018-07-20T04:31:29.955Z,17.86
2018-07-20T04:32:29.954Z,17.92
2018-07-20T04:33:29.951Z,17.98
2018-07-20T04:34:29.953Z,18.02
2018-07-20T04:35:29.953Z,18.05
2018-07-20T04:36:30.116Z,18.13
2018-07-20T04:37:29.943Z,18.14
2018-07-20T04:38:29.947Z,18.19
2018-07-20T04:39:29.946Z,18.26
2018-07-20T04:40:29.942Z,18.34
2018-07-20T04:41:29.940Z,18.36
2018-07-20T04:42:29.934Z,18.46
2018-07-20T04:43:29.933Z,18.50
2018-07-20T04:44:29.932Z,18.51
2018-07-20T04:45:29.931Z,18.50
2018-07-20T04:46:29.931Z,18.64
2018-07-20T04:47:29.934Z,18.62
2018-07-20T04:48:29.930Z,18.69
2018-07-20T04:49:29.930Z,18.64
2018-07-20T04:50:29.928Z,18.65
2018-07-20T04:51:29.921Z,18.68
2018-07-20T04:52:29.925Z,18.69
2018-07-20T04:53:29.921Z,18.72
2018-07-20T04:54:29.917Z,18.71
2018-07-20T04:55:29.914Z,18.75
2018-07-20T04:56:29.918Z,18.86
2018-07-20T04:57:29.912Z,18.89
2018-07-20T04:58:29.915Z,18.89
2018-07-20T04:59:29.913Z,18.86
2018-07-20T05:00:29.912Z,18.97
2018-07-20T05:01:29.910Z,18.94
2018-07-20T05:02:29.906Z,19.02
2018-07-20T05:03:29.905Z,19.05
2018-07-20T05:04:29.904Z,18.97
2018-07-20T05:05:29.903Z,18.99
2018-07-20T05:06:29.907Z,19.09
2018-07-20T05:07:29.905Z,19.06
2018-07-20T05:08:29.900Z,19.16
2018-07-20T05:09:29.898Z,19.30
2018-07-20T05:10:29.903Z,19.42
2018-07-20T05:11:30.001Z,19.49
2018-07-20T05:12:29.901Z,19.80
2018-07-20T05:13:29.902Z,20.07
2018-07-20T05:14:29.895Z,20.16
2018-07-20T05:15:29.896Z,20.35
2018-07-20T05:16:29.895Z,20.46
2018-07-20T05:17:29.895Z,20.56
2018-07-20T05:18:29.901Z,20.63
2018-07-20T05:19:29.899Z,20.94
2018-07-20T05:20:29.898Z,21.22
2018-07-20T05:21:29.898Z,21.43
2018-07-20T05:22:29.894Z,21.64
2018-07-20T05:23:29.896Z,21.89
2018-07-20T05:24:29.902Z,22.20
2018-07-20T05:25:29.899Z,22.49
2018-07-20T05:26:29.895Z,22.85
2018-07-20T05:27:29.897Z,23.21
2018-07-20T05:28:29.898Z,23.38
2018-07-20T05:29:29.898Z,23.68
2018-07-20T05:30:29.904Z,23.97
2018-07-20T05:31:29.905Z,24.08
2018-07-20T05:32:29.914Z,24.29
2018-07-20T05:33:29.909Z,24.64
2018-07-20T05:34:29.905Z,24.84
2018-07-20T05:35:29.908Z,25.16
2018-07-20T05:36:29.910Z,25.45
2018-07-20T05:37:29.911Z,25.61
2018-07-20T05:38:29.924Z,26.09
2018-07-20T05:39:29.920Z,25.94
2018-07-20T05:40:29.918Z,26.28
2018-07-20T05:41:29.921Z,26.28
2018-07-20T05:42:29.928Z,26.60
2018-07-20T05:43:29.931Z,27.08
2018-07-20T05:44:29.936Z,27.55
2018-07-20T05:45:29.944Z,27.48
2018-07-20T05:46:29.938Z,27.61
2018-07-20T05:47:29.940Z,27.95
2018-07-20T05:48:29.945Z,28.61
2018-07-20T05:49:29.949Z,29.00
2018-07-20T05:50:29.958Z,29.41
2018-07-20T05:51:29.963Z,29.92
2018-07-20T05:52:29.966Z,30.23
2018-07-20T05:53:30.028Z,30.63
2018-07-20T05:54:29.972Z,31.04
2018-07-20T05:55:29.978Z,31.27
2018-07-20T05:56:29.985Z,31.13
2018-07-20T05:57:29.990Z,30.75
2018-07-20T05:58:29.991Z,30.30
2018-07-20T05:59:29.996Z,29.51
2018-07-20T06:00:30.002Z,28.77
2018-07-20T06:01:30.010Z,28.70
2018-07-20T06:02:30.019Z,28.92
2018-07-20T06:03:30.026Z,28.51
2018-07-20T06:04:30.034Z,28.45
2018-07-20T06:05:30.075Z,28.48
2018-07-20T06:06:30.039Z,29.02
2018-07-20T06:07:30.047Z,29.25
2018-07-20T06:08:30.053Z,29.52
2018-07-20T06:09:30.058Z,29.60
2018-07-20T06:10:30.073Z,29.52
2018-07-20T06:11:30.076Z,29.49
2018-07-20T06:12:30.080Z,30.04
2018-07-20T06:13:30.085Z,28.83
2018-07-20T06:14:30.097Z,28.61
2018-07-20T06:15:30.105Z,29.17
2018-07-20T06:16:30.114Z,29.58
2018-07-20T06:17:30.120Z,29.70
2018-07-20T06:18:30.122Z,30.37
2018-07-20T06:19:30.131Z,30.63
2018-07-20T06:20:30.138Z,30.34
2018-07-20T06:21:30.154Z,30.37
2018-07-20T06:22:30.158Z,30.45
2018-07-20T06:23:30.174Z,30.68
2018-07-20T06:24:30.175Z,30.93
2018-07-20T06:25:30.182Z,31.19
2018-07-20T06:26:30.185Z,31.53
2018-07-20T06:27:30.194Z,32.09
2018-07-20T06:28:30.208Z,32.54
2018-07-20T06:29:30.219Z,32.66
2018-07-20T06:30:30.219Z,32.95
2018-07-20T06:31:30.229Z,33.44
2018-07-20T06:32:30.238Z,33.72
2018-07-20T06:33:30.245Z,33.77
2018-07-20T06:34:30.260Z,33.84
2018-07-20T06:35:30.268Z,33.71
2018-07-20T06:36:30.277Z,33.49
2018-07-20T06:37:30.286Z,33.87
2018-07-20T06:38:30.293Z,33.79
2018-07-20T06:39:30.301Z,33.82
2018-07-20T06:40:30.313Z,34.01
2018-07-20T06:41:30.321Z,34.12
2018-07-20T06:42:30.336Z,34.55
2018-07-20T06:43:30.347Z,34.09
2018-07-20T06:44:30.351Z,33.94
2018-07-20T06:45:30.361Z,34.06
2018-07-20T06:46:30.376Z,34.84
2018-07-20T06:47:30.386Z,34.78
2018-07-20T06:48:30.399Z,34.19
2018-07-20T06:49:30.408Z,34.30
2018-07-20T06:50:30.414Z,33.87
2018-07-20T06:51:30.438Z,34.01
2018-07-20T06:52:30.441Z,34.49
2018-07-20T06:53:30.446Z,34.88
2018-07-20T06:54:30.462Z,35.15
2018-07-20T06:55:30.473Z,35.52
2018-07-20T06:56:30.486Z,35.56
2018-07-20T06:57:30.502Z,35.61
2018-07-20T06:58:30.504Z,34.86
2018-07-20T06:59:30.515Z,34.90
2018-07-20T07:00:30.533Z,34.72
2018-07-20T07:01:30.545Z,35.12
2018-07-20T07:02:30.552Z,34.75
2018-07-20T07:03:30.567Z,34.99
2018-07-20T07:04:30.576Z,33.94
2018-07-20T07:05:30.588Z,33.65
2018-07-20T07:06:30.604Z,33.87
2018-07-20T07:07:30.617Z,34.50
2018-07-20T07:08:30.635Z,34.83
2018-07-20T07:09:30.682Z,33.93
2018-07-20T07:10:30.650Z,33.78
2018-07-20T07:11:30.663Z,33.82
2018-07-20T07:12:30.676Z,34.24
2018-07-20T07:13:30.687Z,34.36
2018-07-20T07:14:30.730Z,34.05
2018-07-20T07:15:30.719Z,33.86
2018-07-20T07:16:30.726Z,34.30
2018-07-20T07:17:30.738Z,34.53
2018-07-20T07:18:30.756Z,35.18
2018-07-20T07:19:30.768Z,35.28
2018-07-20T07:20:30.782Z,35.71
2018-07-20T07:21:30.795Z,35.87
2018-07-20T07:22:30.801Z,35.98
2018-07-20T07:23:30.817Z,36.37
2018-07-20T07:24:30.829Z,36.12
2018-07-20T07:25:30.840Z,36.57
2018-07-20T07:26:30.857Z,36.79
2018-07-20T07:27:30.870Z,36.27
2018-07-20T07:28:30.886Z,35.92
2018-07-20T07:29:30.898Z,35.89
2018-07-20T07:30:30.906Z,35.78
2018-07-20T07:31:30.922Z,36.30
2018-07-20T07:32:30.939Z,36.28
2018-07-20T07:33:30.952Z,36.44
2018-07-20T07:34:30.960Z,36.59
2018-07-20T07:35:30.975Z,37.08
2018-07-20T07:36:30.991Z,37.02
2018-07-20T07:37:31.001Z,37.27
2018-07-20T07:38:31.019Z,37.72
2018-07-20T07:39:31.033Z,36.94
2018-07-20T07:40:31.049Z,36.00
2018-07-20T07:41:31.061Z,35.13
2018-07-20T07:42:31.072Z,35.66
2018-07-20T07:43:31.088Z,36.21
2018-07-20T07:44:31.101Z,36.22
2018-07-20T07:45:31.115Z,35.69
2018-07-20T07:46:31.134Z,36.19
2018-07-20T07:47:31.149Z,36.72
2018-07-20T07:48:31.158Z,37.30
2018-07-20T07:49:31.175Z,37.38
2018-07-20T07:50:31.192Z,37.21
2018-07-20T07:51:31.205Z,37.47
2018-07-20T07:52:31.220Z,37.62
2018-07-20T07:53:31.233Z,37.90
2018-07-20T07:54:31.245Z,38.34
2018-07-20T07:55:31.258Z,38.67
2018-07-20T07:56:31.275Z,38.92
2018-07-20T07:57:31.288Z,39.10
2018-07-20T07:58:31.308Z,39.61
2018-07-20T07:59:31.323Z,40.03
2018-07-20T08:00:31.338Z,40.34
2018-07-20T08:01:31.353Z,40.61
2018-07-20T08:02:31.365Z,40.72
2018-07-20T08:03:31.384Z,39.90
2018-07-20T08:04:31.416Z,39.97
2018-07-20T08:05:31.413Z,40.53
2018-07-20T08:06:31.425Z,40.68
2018-07-20T08:07:31.441Z,40.56
2018-07-20T08:08:31.457Z,40.31
2018-07-20T08:09:31.471Z,40.39
2018-07-20T08:10:31.492Z,39.99
2018-07-20T08:11:31.512Z,40.53
2018-07-20T08:12:31.525Z,40.46
2018-07-20T08:13:31.541Z,40.60
2018-07-20T08:14:31.552Z,40.67
2018-07-20T08:15:31.573Z,40.79
2018-07-20T08:16:31.585Z,41.05
2018-07-20T08:17:31.600Z,41.51
2018-07-20T08:18:31.621Z,41.92
2018-07-20T08:19:31.639Z,42.27
2018-07-20T08:20:31.650Z,42.67
2018-07-20T08:21:31.669Z,43.02
2018-07-20T08:22:31.688Z,43.43
2018-07-20T08:23:31.705Z,43.78
2018-07-20T08:24:31.722Z,44.10
2018-07-20T08:25:31.736Z,44.39
2018-07-20T08:26:31.749Z,44.58
2018-07-20T08:27:31.769Z,44.35
2018-07-20T08:28:31.784Z,43.86
2018-07-20T08:29:31.916Z,43.30
2018-07-20T08:30:31.828Z,43.29
2018-07-20T08:31:31.841Z,43.16
2018-07-20T08:32:31.858Z,43.50
2018-07-20T08:33:31.876Z,43.71
2018-07-20T08:34:31.889Z,43.48
2018-07-20T08:35:31.907Z,43.72
2018-07-20T08:36:31.929Z,43.79
2018-07-20T08:37:31.946Z,44.18
2018-07-20T08:38:31.961Z,44.24
2018-07-20T08:39:31.979Z,44.74
2018-07-20T08:40:31.999Z,45.19
2018-07-20T08:41:32.012Z,45.51
2018-07-20T08:42:32.038Z,45.73
2018-07-20T08:43:32.053Z,45.89
2018-07-20T08:44:32.073Z,45.69
2018-07-20T08:45:32.090Z,45.79
2018-07-20T08:46:32.115Z,44.98
2018-07-20T08:47:32.123Z,44.53
2018-07-20T08:48:32.140Z,44.39
2018-07-20T08:49:32.163Z,44.13
2018-07-20T08:50:32.186Z,44.16
2018-07-20T08:51:32.204Z,44.66
2018-07-20T08:52:32.223Z,44.96
2018-07-20T08:53:32.236Z,44.82
2018-07-20T08:54:32.261Z,44.85
2018-07-20T08:55:32.279Z,45.05
2018-07-20T08:56:32.299Z,45.32
2018-07-20T08:57:32.317Z,45.04
2018-07-20T08:58:32.333Z,45.26
2018-07-20T08:59:32.352Z,45.48
2018-07-20T09:00:32.372Z,45.27
2018-07-20T09:01:32.390Z,45.19
2018-07-20T09:02:32.415Z,45.51
2018-07-20T09:03:32.485Z,45.75
2018-07-20T09:04:32.454Z,43.97
2018-07-20T09:05:32.473Z,43.22
2018-07-20T09:06:32.488Z,43.26
2018-07-20T09:07:32.508Z,43.81
2018-07-20T09:08:32.532Z,44.25
2018-07-20T09:09:32.551Z,44.50
2018-07-20T09:10:32.568Z,44.89
2018-07-20T09:11:32.586Z,44.06
2018-07-20T09:12:32.607Z,44.46
2018-07-20T09:13:32.698Z,44.92
2018-07-20T09:14:32.652Z,45.29
2018-07-20T09:15:32.671Z,45.23
2018-07-20T09:16:32.692Z,44.69
2018-07-20T09:17:32.712Z,44.91
2018-07-20T09:18:32.731Z,42.45
2018-07-20T09:19:32.749Z,42.27
2018-07-20T09:20:32.796Z,41.89
2018-07-20T09:21:32.788Z,42.29
2018-07-20T09:22:32.811Z,42.83
2018-07-20T09:23:32.831Z,43.36
2018-07-20T09:24:32.849Z,43.56
2018-07-20T09:25:32.867Z,43.59
2018-07-20T09:26:32.892Z,43.75
2018-07-20T09:27:32.912Z,44.23
2018-07-20T09:28:32.933Z,44.46
2018-07-20T09:29:32.951Z,44.49
2018-07-20T09:30:32.968Z,44.78
2018-07-20T09:31:32.988Z,44.82
2018-07-20T09:32:33.008Z,44.78
2018-07-20T09:33:33.027Z,44.30
2018-07-20T09:34:33.051Z,44.24
2018-07-20T09:35:33.074Z,43.48
2018-07-20T09:36:33.093Z,43.03
2018-07-20T09:37:33.113Z,42.76
2018-07-20T09:38:33.127Z,41.85
2018-07-20T09:39:33.149Z,41.38
2018-07-20T09:40:33.174Z,41.54
2018-07-20T09:41:33.192Z,41.23
2018-07-20T09:42:33.207Z,41.25
2018-07-20T09:43:33.227Z,41.32
2018-07-20T09:44:33.248Z,40.94
2018-07-20T09:45:33.266Z,40.61
2018-07-20T09:46:33.290Z,39.24
2018-07-20T09:47:33.309Z,38.16
2018-07-20T09:48:33.329Z,37.63
2018-07-20T09:49:33.347Z,36.83
2018-07-20T09:50:33.363Z,37.06
2018-07-20T09:51:33.381Z,36.97
2018-07-20T09:52:33.399Z,36.83
2018-07-20T09:53:33.420Z,37.05
2018-07-20T09:54:33.439Z,37.45
2018-07-20T09:55:33.460Z,38.26
2018-07-20T09:56:33.471Z,39.27
2018-07-20T09:57:33.487Z,40.03
2018-07-20T09:58:33.542Z,39.46
2018-07-20T09:59:33.587Z,39.00
2018-07-20T10:00:33.546Z,38.07
2018-07-20T10:01:33.562Z,37.80
2018-07-20T10:02:33.575Z,37.87
2018-07-20T10:03:33.592Z,37.38
2018-07-20T10:04:33.609Z,37.56
2018-07-20T10:05:33.627Z,37.04
2018-07-20T10:06:33.649Z,37.47
2018-07-20T10:07:33.675Z,37.99
2018-07-20T10:08:33.683Z,37.93
2018-07-20T10:09:33.700Z,38.55
2018-07-20T10:10:33.712Z,38.93
2018-07-20T10:11:33.733Z,39.38
2018-07-20T10:12:33.784Z,39.62
2018-07-20T10:13:33.768Z,39.97
2018-07-20T10:14:33.780Z,39.29
2018-07-20T10:15:33.796Z,39.39
2018-07-20T10:16:33.813Z,39.43
2018-07-20T10:17:33.829Z,39.56
2018-07-20T10:18:33.851Z,39.61
2018-07-20T10:19:33.875Z,39.85
2018-07-20T10:20:33.885Z,40.04
2018-07-20T10:21:33.901Z,40.09
2018-07-20T10:22:33.914Z,40.29
2018-07-20T10:23:33.930Z,40.72
2018-07-20T10:24:33.947Z,41.16
2018-07-20T10:25:34.023Z,41.35
2018-07-20T10:26:33.985Z,41.73
2018-07-20T10:27:34.002Z,42.15
2018-07-20T10:28:34.015Z,42.26
2018-07-20T10:29:34.031Z,42.83
2018-07-20T10:30:34.075Z,43.18
2018-07-20T10:31:34.071Z,43.59
2018-07-20T10:32:34.088Z,43.82
2018-07-20T10:33:34.108Z,43.52
2018-07-20T10:34:34.117Z,43.57
2018-07-20T10:35:34.136Z,43.29
2018-07-20T10:36:34.183Z,42.99
2018-07-20T10:37:34.171Z,43.10
2018-07-20T10:38:34.195Z,43.52
2018-07-20T10:39:34.212Z,43.71
2018-07-20T10:40:34.230Z,43.84
2018-07-20T10:41:34.247Z,44.03
2018-07-20T10:42:34.264Z,44.39
2018-07-20T10:43:34.279Z,44.58
2018-07-20T10:44:34.302Z,44.56
2018-07-20T10:45:34.320Z,43.68
2018-07-20T10:46:34.334Z,43.41
2018-07-20T10:47:34.353Z,42.87
2018-07-20T10:48:34.371Z,42.91
2018-07-20T10:49:34.390Z,42.52
2018-07-20T10:50:34.412Z,42.77
2018-07-20T10:51:34.431Z,42.29
2018-07-20T10:52:34.448Z,42.24
2018-07-20T10:53:34.468Z,42.33
2018-07-20T10:54:34.481Z,42.20
2018-07-20T10:55:34.498Z,41.48
2018-07-20T10:56:34.515Z,41.31
2018-07-20T10:57:34.532Z,41.23
2018-07-20T10:58:34.555Z,41.13
2018-07-20T10:59:34.571Z,41.28
2018-07-20T11:00:34.589Z,41.16
2018-07-20T11:01:34.674Z,41.25
2018-07-20T11:02:34.625Z,41.47
2018-07-20T11:03:34.646Z,41.70
2018-07-20T11:04:34.660Z,41.85
2018-07-20T11:05:34.675Z,41.85
2018-07-20T11:06:34.690Z,41.72
2018-07-20T11:07:34.710Z,41.44
2018-07-20T11:08:34.723Z,41.41
2018-07-20T11:09:34.739Z,41.42
2018-07-20T11:10:34.762Z,41.41
2018-07-20T11:11:34.779Z,41.36
2018-07-20T11:12:34.795Z,41.42
2018-07-20T11:13:34.811Z,41.23
2018-07-20T11:14:34.824Z,41.32
2018-07-20T11:15:34.841Z,41.29
2018-07-20T11:16:34.864Z,41.72
2018-07-20T11:17:34.910Z,41.86
2018-07-20T11:18:34.891Z,41.48
2018-07-20T11:19:34.909Z,41.25
2018-07-20T11:20:34.927Z,41.17
2018-07-20T11:21:34.943Z,41.01
2018-07-20T11:22:34.966Z,40.95
2018-07-20T11:23:34.982Z,41.07
2018-07-20T11:24:34.998Z,41.13
2018-07-20T11:25:35.015Z,41.31
2018-07-20T11:26:35.027Z,40.21
2018-07-20T11:27:35.043Z,40.02
2018-07-20T11:28:35.059Z,40.03
2018-07-20T11:29:35.076Z,39.85
2018-07-20T11:30:35.095Z,39.48
2018-07-20T11:31:35.112Z,39.35
2018-07-20T11:32:35.126Z,39.13
2018-07-20T11:33:35.139Z,38.67
2018-07-20T11:34:35.191Z,38.55
2018-07-20T11:35:35.173Z,38.31
2018-07-20T11:36:35.192Z,38.15
2018-07-20T11:37:35.204Z,38.02
2018-07-20T11:38:35.217Z,37.99
2018-07-20T11:39:35.228Z,37.75
2018-07-20T11:40:35.245Z,37.75
2018-07-20T11:41:35.259Z,37.75
2018-07-20T11:42:35.270Z,37.65
2018-07-20T11:43:35.284Z,37.50
2018-07-20T11:44:35.299Z,37.34
2018-07-20T11:45:35.308Z,37.09
2018-07-20T11:46:35.328Z,36.84
2018-07-20T11:47:35.341Z,36.86
2018-07-20T11:48:35.350Z,36.77
2018-07-20T11:49:35.361Z,36.71
2018-07-20T11:50:35.377Z,36.43
2018-07-20T11:51:35.390Z,36.33
2018-07-20T11:52:35.402Z,36.33
2018-07-20T11:53:35.412Z,36.41
2018-07-20T11:54:35.419Z,36.34
2018-07-20T11:55:35.433Z,36.37
2018-07-20T11:56:35.442Z,36.44
2018-07-20T11:57:35.454Z,36.49
2018-07-20T11:58:35.469Z,36.57
2018-07-20T11:59:35.481Z,36.62
2018-07-20T12:00:35.492Z,36.56
2018-07-20T12:01:35.504Z,36.43
2018-07-20T12:02:35.507Z,36.13
2018-07-20T12:03:35.518Z,35.91
2018-07-20T12:04:35.535Z,35.46
2018-07-20T12:05:35.543Z,34.94
2018-07-20T12:06:35.552Z,34.83
2018-07-20T12:07:35.561Z,34.95
2018-07-20T12:08:35.570Z,35.15
2018-07-20T12:09:35.579Z,35.22
2018-07-20T12:10:35.593Z,35.28
2018-07-20T12:11:35.603Z,35.49
2018-07-20T12:12:35.613Z,35.40
2018-07-20T12:13:35.622Z,35.29
2018-07-20T12:14:35.628Z,34.71
2018-07-20T12:15:35.638Z,33.86
2018-07-20T12:16:35.649Z,33.14
2018-07-20T12:17:35.657Z,33.03
2018-07-20T12:18:35.671Z,33.11
2018-07-20T12:19:35.680Z,32.91
2018-07-20T12:20:35.685Z,32.88
2018-07-20T12:21:35.694Z,32.93
2018-07-20T12:22:35.708Z,33.11
2018-07-20T12:23:35.716Z,33.29
2018-07-20T12:24:35.725Z,33.56
2018-07-20T12:25:35.733Z,33.65
2018-07-20T12:26:35.738Z,33.65
2018-07-20T12:27:35.748Z,33.72
2018-07-20T12:28:35.756Z,33.87
2018-07-20T12:29:35.765Z,33.81
2018-07-20T12:30:35.777Z,33.92
2018-07-20T12:31:35.786Z,33.99
2018-07-20T12:32:35.796Z,34.15
2018-07-20T12:33:35.803Z,34.34
2018-07-20T12:34:35.812Z,34.48
2018-07-20T12:35:35.816Z,34.63
2018-07-20T12:36:35.829Z,34.71
2018-07-20T12:37:35.837Z,34.93
2018-07-20T12:38:35.840Z,34.98
2018-07-20T12:39:35.848Z,34.90
2018-07-20T12:40:35.857Z,34.72
2018-07-20T12:41:35.865Z,34.72
2018-07-20T12:42:35.926Z,34.73
2018-07-20T12:43:35.886Z,34.63
2018-07-20T12:44:35.897Z,34.60
2018-07-20T12:45:35.902Z,34.48
2018-07-20T12:46:35.916Z,34.46
2018-07-20T12:47:35.915Z,34.55
2018-07-20T12:48:35.924Z,34.60
2018-07-20T12:49:35.931Z,34.75
2018-07-20T12:50:35.947Z,34.83
2018-07-20T12:51:35.952Z,34.84
2018-07-20T12:52:35.958Z,34.75